Time;durP1;ratioP1;P1;durP2;ratioP2;P2;SDS_P1;SDS_P2;PMS_P1;PMS_P2;Temp;Humidity;BMP_temperature;BMP_pressure;BME280_temperature;BME280_humidity;BME280_pressure;Samples;Min_cycle;Max_cycle;Signal;HPM_P1;HPM_P2
2024/02/19 00:00:46;;;;;;;72.63;44.10;;;;;;;6.93;100.00;93328.47;5035504;28;20055;-80
2024/02/19 00:03:13;;;;;;;66.30;42.53;;;;;;;6.92;100.00;93330.31;5061649;28;20070;-79
2024/02/19 00:05:40;;;;;;;66.72;43.17;;;;;;;6.89;100.00;93328.19;5060753;28;20427;-80
2024/02/19 00:08:07;;;;;;;65.97;42.20;;;;;;;6.86;100.00;93332.03;5028751;28;20106;-79
2024/02/19 00:10:34;;;;;;;67.97;43.95;;;;;;;6.84;100.00;93326.28;5040223;28;20034;-80
2024/02/19 00:13:00;;;;;;;66.00;43.20;;;;;;;6.79;100.00;93336.63;5046591;28;20033;-80
2024/02/19 00:15:26;;;;;;;66.43;40.08;;;;;;;6.75;100.00;93335.53;5042653;28;20041;-79
2024/02/19 00:17:51;;;;;;;61.60;40.88;;;;;;;6.71;100.00;93336.25;5041415;28;20075;-80
2024/02/19 00:20:17;;;;;;;61.25;39.28;;;;;;;6.64;100.00;93336.44;5061083;28;20148;-79
2024/02/19 00:22:43;;;;;;;63.05;40.13;;;;;;;6.62;100.00;93346.28;5067076;28;20028;-79
2024/02/19 00:25:09;;;;;;;57.65;38.85;;;;;;;6.56;100.00;93336.88;5024197;28;20042;-78
2024/02/19 00:27:34;;;;;;;59.33;39.17;;;;;;;6.45;100.00;93331.53;5045903;28;20047;-79
2024/02/19 00:30:00;;;;;;;57.83;38.55;;;;;;;6.42;100.00;93333.84;5045110;28;20489;-79
2024/02/19 00:32:25;;;;;;;56.00;36.90;;;;;;;6.36;100.00;93325.16;5027773;28;20041;-79
2024/02/19 00:34:51;;;;;;;56.10;36.72;;;;;;;6.25;100.00;93321.63;5012827;28;20092;-79
2024/02/19 00:37:17;;;;;;;68.03;40.90;;;;;;;6.20;100.00;93329.34;5033296;28;20039;-79
2024/02/19 00:39:43;;;;;;;66.63;41.47;;;;;;;6.16;100.00;93325.66;5027844;28;20037;-80
2024/02/19 00:42:10;;;;;;;68.50;40.42;;;;;;;6.12;100.00;93316.75;5066892;28;20047;-80
2024/02/19 00:44:35;;;;;;;65.32;42.13;;;;;;;6.08;100.00;93320.06;5044084;28;20711;-80
2024/02/19 00:47:01;;;;;;;67.65;44.15;;;;;;;6.04;100.00;93315.34;5048525;28;20046;-80
2024/02/19 00:49:27;;;;;;;68.68;42.10;;;;;;;5.98;100.00;93305.09;5036592;28;20033;-79
2024/02/19 00:51:53;;;;;;;65.45;39.63;;;;;;;5.97;100.00;93303.56;5056413;28;20040;-79
2024/02/19 00:54:18;;;;;;;66.00;39.65;;;;;;;5.93;100.00;93308.38;5053604;28;20036;-80
2024/02/19 00:56:44;;;;;;;62.63;39.17;;;;;;;5.88;100.00;93297.94;5030004;28;20470;-80
2024/02/19 00:59:10;;;;;;;67.50;42.50;;;;;;;5.82;100.00;93297.03;5030565;28;20041;-80
2024/02/19 01:01:35;;;;;;;68.43;42.17;;;;;;;5.83;100.00;93292.63;5038845;28;20036;-79
2024/02/19 01:04:01;;;;;;;58.20;39.53;;;;;;;5.79;100.00;93289.75;5067073;28;20356;-79
2024/02/19 01:06:27;;;;;;;63.20;38.78;;;;;;;5.78;100.00;93292.56;5041466;28;20079;-80
2024/02/19 01:08:54;;;;;;;62.75;40.35;;;;;;;5.77;100.00;93291.00;5049695;28;20533;-79
2024/02/19 01:11:20;;;;;;;68.35;41.20;;;;;;;5.73;100.00;93282.09;5041960;28;20048;-79
2024/02/19 01:13:46;;;;;;;66.47;40.63;;;;;;;5.67;100.00;93289.00;5059229;28;20041;-79
2024/02/19 01:16:11;;;;;;;68.60;43.53;;;;;;;5.71;100.00;93302.31;5049807;28;20029;-80
2024/02/19 01:18:37;;;;;;;67.55;42.03;;;;;;;5.68;100.00;93295.78;5057499;28;20338;-80
2024/02/19 01:21:03;;;;;;;68.25;43.17;;;;;;;5.62;100.00;93292.31;5047813;28;20037;-79
2024/02/19 01:23:29;;;;;;;71.72;44.95;;;;;;;5.64;100.00;93295.47;5048930;28;20467;-80
2024/02/19 01:25:55;;;;;;;69.55;43.67;;;;;;;5.60;100.00;93283.97;5037030;28;20068;-80
2024/02/19 01:28:22;;;;;;;79.13;45.00;;;;;;;5.59;100.00;93279.81;5049454;28;20043;-80
2024/02/19 01:30:47;;;;;;;65.63;42.60;;;;;;;5.56;100.00;93282.88;5062762;28;20476;-79
2024/02/19 01:33:14;;;;;;;77.80;46.47;;;;;;;5.53;100.00;93277.38;5045822;28;20456;-79
2024/02/19 01:35:40;;;;;;;75.38;46.55;;;;;;;5.53;100.00;93272.16;5062923;28;20040;-79
2024/02/19 01:38:05;;;;;;;74.20;45.78;;;;;;;5.49;100.00;93271.84;5072850;28;20572;-79
2024/02/19 01:40:31;;;;;;;74.85;45.45;;;;;;;5.48;100.00;93274.69;5059274;28;20041;-80
2024/02/19 01:43:04;;;;;;;82.85;49.33;;;;;;;5.48;100.00;93270.28;5062480;28;20043;-79
2024/02/19 01:45:30;;;;;;;83.80;49.58;;;;;;;5.51;100.00;93274.22;5064419;28;20071;-80
2024/02/19 01:47:57;;;;;;;85.55;50.58;;;;;;;5.50;100.00;93273.44;5050022;28;20033;-79
2024/02/19 01:50:24;;;;;;;84.55;47.78;;;;;;;5.46;100.00;93264.53;5035053;28;20064;-80
2024/02/19 01:52:53;;;;;;;85.85;49.65;;;;;;;5.46;100.00;93272.31;5056381;28;20454;-80
2024/02/19 01:55:20;;;;;;;81.38;49.72;;;;;;;5.43;100.00;93257.22;5031871;28;20432;-79
2024/02/19 01:57:46;;;;;;;91.85;52.63;;;;;;;5.35;100.00;93252.41;5050385;28;20045;-80
2024/02/19 02:00:13;;;;;;;86.05;50.03;;;;;;;5.37;100.00;93258.16;5032044;28;20033;-80
2024/02/19 02:02:39;;;;;;;89.78;49.17;;;;;;;5.36;100.00;93257.38;5032412;28;20090;-80
2024/02/19 02:05:06;;;;;;;85.68;49.25;;;;;;;5.32;100.00;93255.47;5039838;28;20033;-80
2024/02/19 02:07:31;;;;;;;81.78;49.47;;;;;;;5.26;100.00;93253.81;5031905;28;20041;-80
2024/02/19 02:10:02;;;;;;;84.35;50.28;;;;;;;5.26;100.00;93252.00;5050673;28;20831;-80
2024/02/19 02:12:27;;;;;;;85.25;49.38;;;;;;;5.26;100.00;93246.03;5050418;28;20541;-80
2024/02/19 02:14:53;;;;;;;86.68;52.92;;;;;;;5.26;100.00;93236.41;5050153;28;20039;-80
2024/02/19 02:17:19;;;;;;;80.72;49.70;;;;;;;5.25;100.00;93229.66;5039084;28;20029;-78
2024/02/19 02:19:44;;;;;;;85.47;50.33;;;;;;;5.24;100.00;93227.28;5050388;28;20041;-79
2024/02/19 02:22:13;;;;;;;78.95;48.83;;;;;;;5.21;100.00;93233.75;5015224;28;20136;-79
2024/02/19 02:24:42;;;;;;;81.82;49.17;;;;;;;5.16;100.00;93226.66;5058681;28;20068;-80
2024/02/19 02:27:08;;;;;;;77.78;48.05;;;;;;;5.18;100.00;93226.44;5059082;28;20116;-79
2024/02/19 02:29:34;;;;;;;76.10;47.25;;;;;;;5.15;100.00;93224.28;5058302;28;20519;-79
2024/02/19 02:32:00;;;;;;;77.13;44.75;;;;;;;5.13;100.00;93221.91;5050746;28;20033;-80
2024/02/19 02:34:25;;;;;;;72.78;45.72;;;;;;;5.09;100.00;93223.44;5039403;28;20673;-80
2024/02/19 02:36:51;;;;;;;72.80;44.53;;;;;;;5.04;100.00;93217.34;5059719;28;20041;-80
2024/02/19 02:39:17;;;;;;;68.53;43.50;;;;;;;5.00;100.00;93212.66;5057738;28;20063;-80
2024/02/19 02:41:43;;;;;;;74.55;45.55;;;;;;;4.99;100.00;93215.47;5063677;28;20066;-80
2024/02/19 02:44:09;;;;;;;69.30;44.63;;;;;;;4.99;100.00;93212.88;5029200;28;20092;-80
2024/02/19 02:46:35;;;;;;;71.35;43.65;;;;;;;5.00;100.00;93211.88;5050059;28;20082;-80
2024/02/19 02:49:01;;;;;;;72.13;42.22;;;;;;;4.99;100.00;93211.06;5033020;28;20033;-80
2024/02/19 02:51:26;;;;;;;68.32;42.72;;;;;;;4.97;100.00;93202.72;5032775;28;20064;-79
2024/02/19 02:53:52;;;;;;;65.05;41.72;;;;;;;4.99;100.00;93205.09;5044078;28;20401;-79
2024/02/19 02:56:21;;;;;;;67.10;40.45;;;;;;;4.97;100.00;93207.13;4998346;28;20048;-80
2024/02/19 02:58:47;;;;;;;55.22;35.08;;;;;;;4.94;100.00;93202.41;5049645;28;20063;-80
2024/02/19 03:01:33;;;;;;;57.13;34.50;;;;;;;4.89;100.00;93208.28;5055562;28;20044;-79
2024/02/19 03:03:59;;;;;;;46.72;28.73;;;;;;;4.83;100.00;93198.06;5043994;28;20067;-79
2024/02/19 03:06:25;;;;;;;53.65;32.92;;;;;;;4.80;100.00;93194.13;5040680;28;20032;-80
2024/02/19 03:08:51;;;;;;;57.70;34.40;;;;;;;4.76;100.00;93206.00;5065208;28;20037;-79
2024/02/19 03:11:17;;;;;;;60.30;36.95;;;;;;;4.78;100.00;93201.34;5068774;28;20032;-80
2024/02/19 03:13:43;;;;;;;66.55;39.35;;;;;;;4.82;100.00;93199.06;5057521;28;20029;-80
2024/02/19 03:16:09;;;;;;;60.80;36.65;;;;;;;4.86;100.00;93197.59;5039265;28;20484;-80
2024/02/19 03:18:35;;;;;;;60.08;36.17;;;;;;;4.87;100.00;93194.78;5055254;28;20503;-80
2024/02/19 03:21:01;;;;;;;62.80;37.70;;;;;;;4.86;100.00;93184.63;5065002;28;20103;-80
2024/02/19 03:23:27;;;;;;;34.63;21.92;;;;;;;4.87;100.00;93181.03;5035517;28;20373;-80
2024/02/19 03:25:53;;;;;;;19.75;12.52;;;;;;;5.01;100.00;93179.69;5053626;28;20051;-79
2024/02/19 03:28:19;;;;;;;42.38;26.58;;;;;;;5.27;100.00;93174.91;5063631;28;20028;-80
2024/02/19 03:30:46;;;;;;;39.30;24.73;;;;;;;5.32;100.00;93182.78;5059683;28;20530;-80
2024/02/19 03:33:11;;;;;;;41.88;25.63;;;;;;;5.36;100.00;93183.88;5031675;28;20559;-80
2024/02/19 03:35:37;;;;;;;37.83;25.08;;;;;;;5.35;100.00;93177.09;5034024;28;20036;-80
2024/02/19 03:38:03;;;;;;;42.42;24.60;;;;;;;5.32;100.00;93187.97;5052294;28;20036;-79
2024/02/19 03:40:29;;;;;;;43.50;27.70;;;;;;;5.24;100.00;93183.16;5037355;28;20028;-79
2024/02/19 03:42:54;;;;;;;37.15;22.63;;;;;;;5.08;100.00;93180.31;5062370;28;20040;-80
2024/02/19 03:45:20;;;;;;;35.33;20.48;;;;;;;5.04;100.00;93184.41;5021233;28;20037;-80
2024/02/19 03:47:46;;;;;;;39.15;22.50;;;;;;;5.01;100.00;93187.47;5014843;28;20036;-80
2024/02/19 03:50:12;;;;;;;49.25;30.50;;;;;;;4.96;100.00;93175.22;5032659;28;20416;-80
2024/02/19 03:52:37;;;;;;;28.95;17.15;;;;;;;5.04;100.00;93178.44;5037931;28;20044;-80
2024/02/19 03:55:04;;;;;;;10.68;6.15;;;;;;;5.11;100.00;93172.09;5020744;28;20040;-80
2024/02/19 03:57:30;;;;;;;19.25;12.10;;;;;;;5.18;100.00;93167.53;5033524;28;20127;-80
2024/02/19 03:59:56;;;;;;;21.35;12.93;;;;;;;5.29;100.00;93175.44;5059979;28;20031;-80
2024/02/19 04:02:22;;;;;;;13.30;7.90;;;;;;;5.38;100.00;93171.44;5034047;28;20029;-80
2024/02/19 04:04:47;;;;;;;13.60;8.38;;;;;;;5.29;100.00;93141.69;5052646;28;20467;-80
2024/02/19 04:07:13;;;;;;;10.00;5.80;;;;;;;5.56;100.00;93171.22;5060466;28;20029;-80
2024/02/19 04:09:39;;;;;;;5.72;3.40;;;;;;;5.46;100.00;93142.47;5046226;28;20032;-80
2024/02/19 04:12:05;;;;;;;3.83;2.10;;;;;;;5.74;100.00;93172.75;5051080;28;20044;-80
2024/02/19 04:14:32;;;;;;;5.93;2.92;;;;;;;6.04;100.00;93171.59;5049434;28;20404;-80
2024/02/19 04:16:57;;;;;;;31.48;19.50;;;;;;;6.29;100.00;93176.31;5053631;28;20025;-79
2024/02/19 04:19:29;;;;;;;20.92;12.50;;;;;;;6.25;100.00;93170.03;5034739;28;20114;-80
2024/02/19 04:21:55;;;;;;;6.45;3.58;;;;;;;6.20;100.00;93173.38;5064574;28;20086;-79
2024/02/19 04:24:21;;;;;;;5.13;2.40;;;;;;;6.21;100.00;93174.13;5058963;28;20021;-80
2024/02/19 04:26:47;;;;;;;9.10;5.40;;;;;;;6.34;100.00;93178.97;5052219;28;20044;-80
2024/02/19 04:29:12;;;;;;;6.88;4.18;;;;;;;6.42;100.00;93170.75;5033302;28;20048;-80
2024/02/19 04:31:40;;;;;;;5.90;3.70;;;;;;;6.44;100.00;93176.50;5033485;28;20027;-81
2024/02/19 04:34:07;;;;;;;2.67;1.50;;;;;;;6.45;100.00;93185.88;5040036;28;20045;-79
2024/02/19 04:36:33;;;;;;;2.30;1.30;;;;;;;6.49;100.00;93177.59;5044335;28;20041;-80
2024/02/19 04:38:58;;;;;;;1.83;1.20;;;;;;;6.59;100.00;93182.91;5041814;28;20039;-80
2024/02/19 04:41:24;;;;;;;1.60;1.10;;;;;;;6.59;100.00;93180.28;5041518;28;20545;-80
2024/02/19 04:43:50;;;;;;;1.15;1.00;;;;;;;6.64;100.00;93182.94;5064820;28;20115;-80
2024/02/19 04:46:16;;;;;;;1.30;1.10;;;;;;;6.83;100.00;93181.59;5051112;28;20408;-80
2024/02/19 04:48:41;;;;;;;1.75;1.08;;;;;;;6.94;100.00;93184.31;5050845;28;20025;-80
2024/02/19 04:51:07;;;;;;;1.77;1.13;;;;;;;7.06;100.00;93179.72;5050762;28;20136;-80
2024/02/19 04:53:33;;;;;;;1.58;1.10;;;;;;;7.03;100.00;93181.00;5044399;28;20051;-80
2024/02/19 04:55:59;;;;;;;1.90;1.30;;;;;;;7.07;100.00;93189.13;5054614;28;20082;-79
2024/02/19 04:58:24;;;;;;;1.63;1.15;;;;;;;7.09;100.00;93190.44;5049525;28;20052;-81
2024/02/19 05:00:50;;;;;;;1.60;1.10;;;;;;;7.12;100.00;93183.94;5055552;28;20186;-80
2024/02/19 05:03:16;;;;;;;3.35;1.10;;;;;;;7.14;100.00;93192.28;5034899;28;20036;-81
2024/02/19 05:05:42;;;;;;;1.67;1.10;;;;;;;7.15;100.00;93193.84;5057491;28;20021;-80
2024/02/19 05:08:08;;;;;;;1.55;1.10;;;;;;;7.33;100.00;93195.31;5015952;28;20037;-81
2024/02/19 05:10:34;;;;;;;2.75;1.02;;;;;;;7.37;100.00;93182.59;5015946;28;20064;-79
2024/02/19 05:12:59;;;;;;;1.38;1.10;;;;;;;7.44;100.00;93180.56;5043348;28;20530;-80
2024/02/19 05:15:25;;;;;;;1.95;1.20;;;;;;;7.44;100.00;93186.53;5022606;28;20045;-80
2024/02/19 05:17:51;;;;;;;1.02;0.93;;;;;;;7.43;100.00;93173.75;5044513;28;20029;-80
2024/02/19 05:20:17;;;;;;;1.40;1.00;;;;;;;7.39;100.00;93183.13;5011677;28;20040;-80
2024/02/19 05:22:43;;;;;;;1.40;1.00;;;;;;;7.35;100.00;93169.81;5054605;28;20566;-81
2024/02/19 05:25:08;;;;;;;1.05;0.95;;;;;;;7.43;98.23;93171.97;5035560;28;20039;-80
2024/02/19 05:27:34;;;;;;;1.17;1.02;;;;;;;7.60;94.84;93178.84;5056014;28;20119;-80
2024/02/19 05:29:59;;;;;;;1.42;1.10;;;;;;;7.57;95.88;93174.91;5053971;28;20067;-80
2024/02/19 05:32:25;;;;;;;3.17;1.27;;;;;;;7.78;92.23;93172.44;5044420;28;20021;-81
2024/02/19 05:34:51;;;;;;;1.50;1.10;;;;;;;7.83;92.09;93177.69;5054398;28;20045;-81
2024/02/19 05:37:16;;;;;;;1.70;1.17;;;;;;;7.79;92.07;93174.81;5059578;28;20048;-81
2024/02/19 05:39:43;;;;;;;1.60;1.20;;;;;;;7.79;93.89;93184.41;5004270;28;20045;-81
2024/02/19 05:42:09;;;;;;;1.10;1.00;;;;;;;7.84;90.53;93181.88;5050987;28;20036;-80
2024/02/19 05:44:35;;;;;;;1.45;1.15;;;;;;;8.23;83.61;93176.31;5062027;28;20176;-79
2024/02/19 05:47:00;;;;;;;1.85;1.10;;;;;;;8.11;86.70;93185.13;5042619;28;20046;-79
2024/02/19 05:49:27;;;;;;;1.42;1.10;;;;;;;8.02;87.10;93180.66;5036333;28;20032;-80
2024/02/19 05:51:53;;;;;;;1.75;1.10;;;;;;;8.11;85.10;93185.13;5017543;28;20048;-80
2024/02/19 05:54:21;;;;;;;1.60;1.20;;;;;;;8.25;82.93;93182.06;5047768;28;20033;-80
2024/02/19 05:56:47;;;;;;;2.00;1.40;;;;;;;8.16;84.27;93183.59;5051093;28;20446;-82
2024/02/19 05:59:13;;;;;;;1.75;1.10;;;;;;;8.13;85.05;93190.13;5048374;28;20029;-81
2024/02/19 06:01:38;;;;;;;1.83;1.13;;;;;;;8.00;86.31;93188.72;5039421;28;20044;-80
2024/02/19 06:04:04;;;;;;;2.25;1.10;;;;;;;8.05;84.28;93187.97;5051330;28;20040;-78
2024/02/19 06:06:29;;;;;;;1.92;1.20;;;;;;;8.04;84.02;93194.25;5054429;28;20050;-79
2024/02/19 06:08:55;;;;;;;1.60;1.20;;;;;;;7.99;84.73;93191.59;5056465;28;20107;-77
2024/02/19 06:11:21;;;;;;;1.10;1.00;;;;;;;8.12;81.21;93183.31;5043729;28;20036;-79
2024/02/19 06:13:48;;;;;;;1.83;1.20;;;;;;;8.14;81.00;93182.00;5050626;28;20494;-78
2024/02/19 06:16:15;;;;;;;1.58;1.08;;;;;;;8.10;81.42;93183.56;5050689;28;20190;-78
2024/02/19 06:18:40;;;;;;;2.65;1.20;;;;;;;8.01;81.34;93177.25;5048535;28;20029;-78
2024/02/19 06:21:06;;;;;;;1.23;0.90;;;;;;;8.03;79.77;93180.41;5049173;28;20389;-78
2024/02/19 06:23:32;;;;;;;1.10;0.85;;;;;;;8.02;79.45;93183.28;5049238;28;20036;-79
2024/02/19 06:25:58;;;;;;;0.98;0.93;;;;;;;8.02;78.78;93184.06;5031520;28;20479;-79
2024/02/19 06:28:24;;;;;;;0.82;0.82;;;;;;;8.03;77.78;93190.03;5049293;28;20032;-79
2024/02/19 06:30:49;;;;;;;1.10;1.00;;;;;;;8.00;78.84;93193.94;5021373;28;20510;-79
2024/02/19 06:33:16;;;;;;;1.17;0.90;;;;;;;7.97;78.26;93191.84;5069322;28;20361;-77
2024/02/19 06:35:41;;;;;;;1.58;1.20;;;;;;;8.13;79.02;93197.94;5052341;28;20372;-79
2024/02/19 06:38:07;;;;;;;1.77;1.10;;;;;;;9.04;74.99;93195.94;5069991;28;20036;-78
2024/02/19 06:40:33;;;;;;;1.05;0.90;;;;;;;9.80;71.84;93187.31;5057775;28;20086;-78
2024/02/19 06:42:58;;;;;;;1.30;1.08;;;;;;;10.68;66.03;93193.13;5058011;28;20035;-79
2024/02/19 06:45:24;;;;;;;1.10;1.00;;;;;;;11.50;60.72;93192.63;5063986;28;20044;-78
2024/02/19 06:47:50;;;;;;;0.90;0.82;;;;;;;12.27;59.50;93196.16;5063095;28;20044;-78
2024/02/19 06:50:15;;;;;;;1.05;0.90;;;;;;;12.99;54.38;93194.53;5027673;28;20041;-79
2024/02/19 06:52:45;;;;;;;0.82;0.82;;;;;;;13.62;51.54;93198.66;5051829;28;20033;-78
2024/02/19 06:55:15;;;;;;;1.00;0.90;;;;;;;14.31;49.82;93194.31;5050814;28;20044;-79
2024/02/19 06:57:42;;;;;;;0.82;0.80;;;;;;;14.88;45.52;93190.63;5050744;28;20076;-80
2024/02/19 07:00:11;;;;;;;1.13;0.82;;;;;;;15.58;44.46;93203.34;5050368;28;20040;-79
2024/02/19 07:02:38;;;;;;;1.00;0.90;;;;;;;16.17;40.06;93197.22;5050436;28;20120;-79
2024/02/19 07:05:05;;;;;;;0.88;0.70;;;;;;;16.70;40.26;93188.41;5032399;28;20040;-79
2024/02/19 07:07:34;;;;;;;0.60;0.60;;;;;;;17.34;37.71;93184.50;5050154;28;20036;-79
2024/02/19 07:10:00;;;;;;;2.22;1.00;;;;;;;17.87;36.81;93181.56;5049746;28;20021;-78
2024/02/19 07:12:27;;;;;;;0.60;0.60;;;;;;;18.39;34.64;93180.66;5050054;28;20087;-78
2024/02/19 07:14:52;;;;;;;0.47;0.47;;;;;;;19.05;33.36;93184.72;5011875;28;20036;-80
2024/02/19 07:17:18;;;;;;;0.60;0.60;;;;;;;19.72;31.18;93181.16;5012119;28;20500;-80
2024/02/19 07:19:43;;;;;;;0.60;0.60;;;;;;;19.91;32.43;93187.88;5030455;28;20021;-79
2024/02/19 07:22:09;;;;;;;0.57;0.52;;;;;;;20.16;30.18;93186.84;5030310;28;20037;-80
2024/02/19 07:24:36;;;;;;;0.73;0.73;;;;;;;20.57;30.09;93190.47;5012122;28;20420;-78
2024/02/19 07:27:01;;;;;;;0.70;0.70;;;;;;;21.11;29.86;93189.47;5029716;28;20129;-80
2024/02/19 07:29:27;;;;;;;0.80;0.80;;;;;;;21.88;27.23;93187.88;5029519;28;20093;-79
2024/02/19 07:31:52;;;;;;;0.60;0.60;;;;;;;22.12;27.46;93195.00;5011628;28;20045;-79
2024/02/19 07:34:18;;;;;;;0.70;0.70;;;;;;;22.26;27.22;93197.28;5029563;28;20965;-79
2024/02/19 07:36:45;;;;;;;2.45;0.77;;;;;;;22.17;27.36;93200.84;4995893;28;20044;-79
2024/02/19 07:39:11;;;;;;;0.85;0.85;;;;;;;22.61;26.63;93208.84;5012385;28;20056;-79
2024/02/19 07:41:37;;;;;;;0.70;0.70;;;;;;;23.21;25.34;93194.63;5012369;28;20045;-80
2024/02/19 07:44:04;;;;;;;0.63;0.63;;;;;;;24.09;25.07;93196.81;5030191;28;20033;-80
2024/02/19 07:46:29;;;;;;;0.75;0.75;;;;;;;24.01;24.32;93195.16;5029804;28;20017;-79
2024/02/19 07:48:55;;;;;;;1.02;0.90;;;;;;;24.50;24.51;93198.00;4995213;28;20026;-80
2024/02/19 07:51:21;;;;;;;1.95;1.20;;;;;;;24.84;22.61;93202.75;5029121;28;20064;-80
2024/02/19 07:53:47;;;;;;;1.05;0.95;;;;;;;25.40;23.39;93195.94;5029031;28;20040;-80
2024/02/19 07:56:13;;;;;;;1.05;0.80;;;;;;;24.86;22.52;93203.19;5011360;28;20037;-81
2024/02/19 07:58:38;;;;;;;0.70;0.70;;;;;;;24.02;22.58;93196.69;4996156;28;20056;-80
2024/02/19 08:01:04;;;;;;;0.70;0.70;;;;;;;23.77;22.64;93191.63;4995610;28;20040;-80
2024/02/19 08:03:31;;;;;;;1.33;0.80;;;;;;;23.82;23.73;93194.03;5030709;28;20021;-79
2024/02/19 08:05:56;;;;;;;0.52;0.52;;;;;;;22.80;23.07;93199.38;5033218;28;20123;-79
2024/02/19 08:08:22;;;;;;;0.73;0.60;;;;;;;22.64;25.48;93197.47;5033557;28;20035;-78
2024/02/19 08:10:48;;;;;;;0.80;0.60;;;;;;;22.65;25.97;93199.06;5033111;28;20069;-78
2024/02/19 08:13:13;;;;;;;0.60;0.60;;;;;;;22.60;25.49;93195.84;5014813;28;20029;-78
2024/02/19 08:15:42;;;;;;;1.92;1.17;;;;;;;21.26;25.53;93193.34;5014188;28;20046;-78
2024/02/19 08:18:08;;;;;;;0.75;0.65;;;;;;;20.89;27.02;93198.69;4999834;28;20108;-78
2024/02/19 08:20:36;;;;;;;0.60;0.60;;;;;;;21.11;27.21;93194.03;5015302;28;20033;-78
2024/02/19 08:23:02;;;;;;;0.60;0.43;;;;;;;21.18;25.35;93195.00;5032237;28;20412;-77
2024/02/19 08:25:27;;;;;;;1.92;0.50;;;;;;;21.07;26.84;93198.47;5014888;28;20040;-78
2024/02/19 08:27:53;;;;;;;0.50;0.50;;;;;;;20.56;27.07;93202.22;4999021;28;20087;-77
2024/02/19 08:30:19;;;;;;;0.55;0.50;;;;;;;20.49;27.54;93194.00;5014197;28;20041;-79
2024/02/19 08:32:45;;;;;;;3.42;1.90;;;;;;;19.50;28.72;93187.56;5015103;28;20034;-78
2024/02/19 08:35:10;;;;;;;0.82;0.75;;;;;;;19.09;29.48;93193.59;5032722;28;20037;-79
2024/02/19 08:37:36;;;;;;;0.80;0.70;;;;;;;19.20;28.34;93191.34;5013903;28;20029;-78
2024/02/19 08:40:02;;;;;;;1.23;0.90;;;;;;;19.24;29.85;93197.56;4997502;28;20037;-78
2024/02/19 08:42:28;;;;;;;2.67;1.50;;;;;;;19.26;29.20;93196.16;5014523;28;20033;-77
2024/02/19 08:44:53;;;;;;;2.65;1.63;;;;;;;18.88;29.77;93202.31;4997963;28;20552;-78
2024/02/19 08:47:19;;;;;;;0.95;0.65;;;;;;;19.18;29.81;93202.28;5014568;28;20575;-77
2024/02/19 08:49:45;;;;;;;1.23;0.88;;;;;;;19.54;29.03;93200.94;5032793;28;20038;-79
2024/02/19 08:52:10;;;;;;;1.55;0.90;;;;;;;19.35;29.07;93199.53;5032495;28;20291;-78
2024/02/19 08:54:36;;;;;;;0.73;0.60;;;;;;;19.74;29.34;93197.53;4997899;28;20045;-78
2024/02/19 08:57:02;;;;;;;2.15;1.30;;;;;;;18.75;29.73;93192.66;5031378;28;20536;-77
2024/02/19 08:59:27;;;;;;;1.27;0.70;;;;;;;17.89;30.29;93197.13;5031792;28;20038;-77
2024/02/19 09:01:53;;;;;;;1.55;0.68;;;;;;;18.40;30.71;93200.75;5014120;28;20117;-79
2024/02/19 09:04:20;;;;;;;1.05;0.88;;;;;;;18.67;29.36;93204.09;5013832;28;20041;-77
2024/02/19 09:06:46;;;;;;;1.10;0.90;;;;;;;18.41;29.71;93194.34;5031641;28;20045;-79
2024/02/19 09:09:12;;;;;;;1.23;0.93;;;;;;;18.29;31.37;93207.50;4998355;28;20074;-78
2024/02/19 09:11:39;;;;;;;0.75;0.75;;;;;;;18.03;31.17;93200.38;5032688;28;20489;-83
2024/02/19 09:14:09;;;;;;;0.77;0.77;;;;;;;17.87;31.34;93196.66;5028450;28;20026;-79
2024/02/19 09:16:35;;;;;;;0.98;0.75;;;;;;;18.50;31.29;93192.44;5029150;28;20484;-80
2024/02/19 09:19:05;;;;;;;0.68;0.50;;;;;;;19.00;31.06;93188.34;5052080;28;20041;-79
2024/02/19 09:21:31;;;;;;;1.13;0.98;;;;;;;19.27;28.44;93181.78;5034541;28;20448;-77
2024/02/19 09:23:56;;;;;;;1.13;0.80;;;;;;;18.33;29.62;93186.44;5034080;28;20041;-79
2024/02/19 09:26:22;;;;;;;1.33;0.95;;;;;;;17.97;29.96;93185.75;5051036;28;20048;-79
2024/02/19 09:28:47;;;;;;;2.38;1.42;;;;;;;17.16;32.88;93189.81;5052305;28;20033;-77
2024/02/19 09:31:14;;;;;;;0.80;0.80;;;;;;;16.44;31.92;93186.47;5052867;28;20037;-77
2024/02/19 09:33:40;;;;;;;3.03;1.45;;;;;;;16.68;32.79;93180.00;5019396;28;20036;-77
2024/02/19 09:36:11;;;;;;;1.20;0.90;;;;;;;16.74;33.45;93181.44;5050831;28;20037;-77
2024/02/19 09:38:38;;;;;;;1.30;0.97;;;;;;;17.02;31.70;93183.84;5033994;28;20047;-79
2024/02/19 09:41:05;;;;;;;1.48;0.95;;;;;;;17.55;31.79;93190.75;5057177;28;20040;-77
2024/02/19 09:43:31;;;;;;;0.82;0.73;;;;;;;17.69;31.24;93191.34;5051873;28;20024;-78
2024/02/19 09:45:58;;;;;;;2.08;1.20;;;;;;;18.40;31.37;93178.78;5039964;28;20052;-78
2024/02/19 09:48:26;;;;;;;1.52;1.20;;;;;;;17.22;31.98;93180.59;5034547;28;20037;-79
2024/02/19 09:50:53;;;;;;;2.40;1.25;;;;;;;18.08;32.80;93187.00;5017199;28;20025;-79
2024/02/19 09:53:27;;;;;;;0.85;0.77;;;;;;;17.89;30.26;93178.59;5049037;28;20036;-79
2024/02/19 09:55:53;;;;;;;3.58;1.98;;;;;;;17.05;32.01;93191.19;5056209;28;20623;-77
2024/02/19 09:58:19;;;;;;;1.95;1.35;;;;;;;16.85;32.46;93193.31;5052133;28;20053;-79
2024/02/19 10:00:45;;;;;;;3.40;1.52;;;;;;;16.26;33.34;93186.69;5049195;28;20035;-79
2024/02/19 10:03:13;;;;;;;2.95;1.55;;;;;;;16.63;32.77;93193.38;5018000;28;20021;-79
2024/02/19 10:05:39;;;;;;;3.28;2.00;;;;;;;16.53;33.44;93196.31;5070687;28;20033;-79
2024/02/19 10:08:12;;;;;;;3.00;1.60;;;;;;;16.48;33.08;93186.63;5055716;28;20040;-79
2024/02/19 10:10:40;;;;;;;5.60;3.13;;;;;;;17.27;35.41;93201.66;5049753;28;20040;-79
2024/02/19 10:13:10;;;;;;;3.58;1.98;;;;;;;18.04;32.29;93195.88;5050987;28;20595;-79
2024/02/19 10:15:35;;;;;;;1.35;0.93;;;;;;;18.59;28.99;93204.91;5032571;28;20036;-78
2024/02/19 10:18:12;;;;;;;2.42;1.60;;;;;;;18.95;29.89;93201.03;5050429;28;20032;-78
2024/02/19 10:20:45;;;;;;;3.40;1.50;;;;;;;18.33;31.55;93200.47;5050226;28;20086;-79
2024/02/19 10:23:11;;;;;;;1.90;1.30;;;;;;;18.41;30.38;93183.75;5051519;28;20053;-78
2024/02/19 10:25:37;;;;;;;1.92;1.10;;;;;;;18.50;29.95;93186.38;5051997;28;20043;-79
2024/02/19 10:28:08;;;;;;;1.95;1.15;;;;;;;18.40;30.23;93182.22;5035225;28;20063;-82
2024/02/19 10:30:43;;;;;;;1.00;0.90;;;;;;;18.54;30.13;93192.59;5039536;28;20033;-82
2024/02/19 10:33:08;;;;;;;0.75;0.60;;;;;;;18.75;28.54;93187.34;5026249;28;20112;-81
2024/02/19 10:35:39;;;;;;;1.33;1.00;;;;;;;18.82;30.09;93184.22;5040845;28;20039;-82
2024/02/19 10:38:16;;;;;;;0.80;0.63;;;;;;;19.34;28.13;93191.88;5072795;28;20436;-80
2024/02/19 10:40:47;;;;;;;0.60;0.60;;;;;;;19.85;27.60;93184.63;5042716;28;20033;-81
2024/02/19 10:44:07;;;;;;;0.70;0.47;;;;;;;20.42;27.29;93191.09;5054111;28;20041;-79
2024/02/19 10:46:52;;;;;;;0.30;0.30;;;;;;;20.65;26.68;93193.34;5054652;28;20035;-83
2024/02/19 10:49:30;;;;;;;0.40;0.40;;;;;;;20.85;26.23;93186.38;5054217;28;20414;-82
2024/02/19 10:55:28;;;;;;;0.30;0.30;;;;;;;21.40;25.06;93172.47;5053928;28;20431;-82
2024/02/19 10:57:55;;;;;;;0.40;0.40;;;;;;;21.35;24.34;93177.25;5050544;28;20051;-80
2024/02/19 11:00:25;;;;;;;0.30;0.30;;;;;;;20.82;22.61;93171.09;5035020;28;20037;-81
2024/02/19 11:03:06;;;;;;;1.90;1.30;;;;;;;21.10;24.17;93161.31;5035325;28;20041;-84
2024/02/19 11:05:50;;;;;;;0.57;0.57;;;;;;;21.27;25.24;93160.28;5037980;28;20509;-83
2024/02/19 11:08:23;;;;;;;0.50;0.50;;;;;;;21.42;23.09;93146.28;5037336;28;20036;-84
2024/02/19 11:10:54;;;;;;;0.45;0.45;;;;;;;21.62;22.89;93149.13;5053744;28;20056;-85
2024/02/19 11:13:21;;;;;;;0.85;0.60;;;;;;;20.89;23.32;93150.78;5053864;28;20033;-80
2024/02/19 11:15:49;;;;;;;1.83;1.17;;;;;;;19.48;28.97;93139.31;5052126;28;20033;-81
2024/02/19 11:18:16;;;;;;;1.73;1.23;;;;;;;19.65;28.91;93143.69;5032181;28;20060;-79
2024/02/19 11:20:48;;;;;;;1.92;1.20;;;;;;;19.14;28.99;93135.06;5056903;28;20078;-77
2024/02/19 11:23:17;;;;;;;1.77;1.23;;;;;;;18.47;29.06;93134.00;5048621;28;20421;-78
2024/02/19 11:25:44;;;;;;;1.35;0.90;;;;;;;18.60;28.93;93137.50;5044082;28;20094;-77
2024/02/19 11:28:13;;;;;;;0.60;0.60;;;;;;;18.27;27.72;93135.50;5051540;28;20036;-78
2024/02/19 11:30:39;;;;;;;0.40;0.40;;;;;;;18.44;27.78;93139.94;5047308;28;20405;-78